Time;durP1;ratioP1;P1;durP2;ratioP2;P2;SDS_P1;SDS_P2;PMS_P1;PMS_P2;Temp;Humidity;BMP_temperature;BMP_pressure;BME280_temperature;BME280_humidity;BME280_pressure;Samples;Min_cycle;Max_cycle;Signal;HPM_P1;HPM_P2
2021/08/21 00:01:29;;;;;;;4.00;2.75;;;13.80;99.90;;;;;;5019795;28;20418;-96
2021/08/21 00:04:17;;;;;;;4.60;2.50;;;13.90;99.90;;;;;;5045761;28;20469;-94
2021/08/21 00:06:55;;;;;;;4.47;2.85;;;13.90;99.90;;;;;;5042065;28;20425;-96
2021/08/21 00:09:47;;;;;;;6.55;2.63;;;14.00;99.90;;;;;;5042714;28;20841;-96
2021/08/21 00:12:23;;;;;;;7.53;2.75;;;13.90;99.90;;;;;;5041503;28;20486;-96
2021/08/21 00:14:56;;;;;;;5.87;2.53;;;14.00;99.90;;;;;;5041448;28;20421;-96
2021/08/21 00:17:29;;;;;;;6.33;2.43;;;14.10;99.90;;;;;;5039725;28;20934;-96
2021/08/21 00:20:11;;;;;;;4.78;2.40;;;14.00;99.90;;;;;;5038915;28;20473;-96
2021/08/21 00:22:48;;;;;;;6.60;2.65;;;14.10;99.90;;;;;;5037646;28;20907;-96
2021/08/21 00:25:28;;;;;;;4.18;2.40;;;14.10;99.90;;;;;;5021646;28;20430;-96
2021/08/21 00:28:01;;;;;;;4.40;2.50;;;14.00;99.90;;;;;;5038970;28;20450;-96
2021/08/21 00:30:40;;;;;;;7.70;2.53;;;13.90;99.90;;;;;;5043839;28;20430;-96
2021/08/21 00:33:41;;;;;;;4.63;2.50;;;13.80;99.90;;;;;;5002827;28;20471;-96
2021/08/21 00:36:21;;;;;;;6.72;2.70;;;13.80;99.90;;;;;;4986071;28;20431;-96
2021/08/21 00:39:26;;;;;;;5.40;2.60;;;13.80;99.90;;;;;;4970887;28;20434;-96
2021/08/21 00:42:06;;;;;;;4.45;2.80;;;13.80;99.90;;;;;;4985370;28;20423;-96
2021/08/21 00:45:11;;;;;;;5.75;2.90;;;13.90;99.90;;;;;;4974997;28;20469;-96
2021/08/21 00:48:03;;;;;;;5.05;2.72;;;13.90;99.90;;;;;;5011881;28;20421;-96
2021/08/21 01:01:26;;;;;;;;;;;;;;;;;;;;;
2021/08/21 01:04:38;;;;;;;5.40;2.70;;;13.70;99.90;;;;;;5023725;28;20400;-95
2021/08/21 01:07:40;;;;;;;5.97;3.13;;;13.60;99.90;;;;;;4992039;28;20440;-96
2021/08/21 01:10:50;;;;;;;6.22;2.92;;;13.50;99.90;;;;;;5012407;28;20481;-96
2021/08/21 01:13:48;;;;;;;7.28;3.05;;;13.50;99.90;;;;;;5011280;28;20427;-96
2021/08/21 01:20:28;;;;;;;;;;;;;;;;;;;;;
2021/08/21 01:23:14;;;;;;;7.70;3.10;;;13.40;99.90;;;;;;4988098;22;20451;-96
2021/08/21 01:25:55;;;;;;;6.68;3.33;;;13.30;99.90;;;;;;5023465;28;20479;-96
2021/08/21 01:28:44;;;;;;;7.55;2.90;;;13.30;99.90;;;;;;5010721;28;20421;-96
2021/08/21 01:31:21;;;;;;;9.85;3.00;;;13.30;99.90;;;;;;5024720;28;20428;-96
2021/08/21 01:33:49;;;;;;;7.27;3.10;;;13.30;99.90;;;;;;5023810;28;20924;-96
2021/08/21 01:36:19;;;;;;;5.07;3.00;;;13.30;99.90;;;;;;5022689;28;20475;-96
2021/08/21 01:38:55;;;;;;;6.65;3.42;;;13.30;99.90;;;;;;5023849;28;20429;-96
2021/08/21 01:41:23;;;;;;;4.88;3.22;;;13.40;99.90;;;;;;5018083;28;20456;-96
2021/08/21 01:43:53;;;;;;;7.82;3.33;;;13.40;99.90;;;;;;5018435;28;20425;-96
2021/08/21 01:46:23;;;;;;;5.78;2.90;;;13.50;99.90;;;;;;5019226;28;20459;-96
2021/08/21 01:49:01;;;;;;;5.35;3.00;;;13.40;99.90;;;;;;5019038;28;20443;-96
2021/08/21 01:52:11;;;;;;;10.13;2.80;;;13.50;99.90;;;;;;5028974;28;20457;-96
2021/08/21 01:59:48;;;;;;;3.55;2.72;;;13.50;99.90;;;;;;4949835;29;20452;-96
2021/08/21 02:02:29;;;;;;;5.63;3.00;;;13.60;99.90;;;;;;4876182;29;20422;-96
2021/08/21 02:04:57;;;;;;;4.33;2.90;;;13.50;99.90;;;;;;4866616;29;20457;-95
2021/08/21 02:07:35;;;;;;;5.30;2.93;;;13.40;99.90;;;;;;4867872;29;20513;-96
2021/08/21 02:10:24;;;;;;;4.72;3.15;;;13.30;99.90;;;;;;4869591;29;20442;-96
2021/08/21 02:12:57;;;;;;;6.07;2.90;;;13.20;99.90;;;;;;4869012;29;20450;-96
2021/08/21 02:15:28;;;;;;;5.23;3.00;;;13.20;99.90;;;;;;4869804;29;20434;-96
2021/08/21 02:21:38;;;;;;;4.40;3.15;;;13.20;99.90;;;;;;4869453;29;20442;-96
2021/08/21 02:24:18;;;;;;;3.93;2.87;;;13.30;99.90;;;;;;4868200;29;20982;-96
2021/08/21 02:27:13;;;;;;;4.30;2.80;;;13.30;99.90;;;;;;4926882;22;20429;-96
2021/08/21 02:30:04;;;;;;;4.05;2.90;;;13.20;99.90;;;;;;5012161;28;20427;-95
2021/08/21 02:32:44;;;;;;;;;;;;;;;;;;;;;
2021/08/21 02:35:38;;;;;;;4.50;3.23;;;13.20;99.90;;;;;;5001588;28;20397;-96
2021/08/21 02:38:14;;;;;;;7.93;3.28;;;13.10;99.90;;;;;;5002167;28;20573;-96
2021/08/21 02:43:52;;;;;;;6.53;3.15;;;13.20;99.90;;;;;;5002442;28;20426;-95
2021/08/21 02:47:07;;;;;;;4.68;3.30;;;13.20;99.90;;;;;;4965038;29;20422;-96
2021/08/21 02:50:13;;;;;;;4.28;3.10;;;13.30;99.90;;;;;;4964971;29;20429;-96
2021/08/21 02:53:04;;;;;;;5.22;3.35;;;13.30;99.90;;;;;;4949403;29;20568;-96
2021/08/21 02:56:13;;;;;;;4.38;3.00;;;13.20;99.90;;;;;;4964861;29;20422;-96
2021/08/21 02:59:41;;;;;;;5.30;3.20;;;13.20;99.90;;;;;;4964344;29;20529;-96
2021/08/21 03:05:51;;;;;;;5.15;2.97;;;13.20;99.90;;;;;;4986818;28;20444;-96
2021/08/21 03:08:30;;;;;;;6.93;3.00;;;13.30;99.90;;;;;;4984174;28;20424;-96
2021/08/21 03:11:29;;;;;;;4.85;2.80;;;13.20;99.90;;;;;;4980360;28;20424;-96
2021/08/21 03:14:18;;;;;;;4.25;3.08;;;13.30;99.90;;;;;;4969245;28;20468;-96
2021/08/21 03:20:46;;;;;;;;;;;;;;;;;;;;;
2021/08/21 03:23:22;;;;;;;5.65;3.08;;;13.20;99.90;;;;;;4963567;29;20531;-96
2021/08/21 03:26:20;;;;;;;4.90;3.20;;;13.10;99.90;;;;;;4948159;29;20426;-96
2021/08/21 03:29:34;;;;;;;7.03;3.20;;;13.10;99.90;;;;;;4965061;29;20490;-96
2021/08/21 03:32:39;;;;;;;5.15;3.33;;;13.10;99.90;;;;;;4947837;29;20496;-96
2021/08/21 03:35:38;;;;;;;6.03;3.55;;;13.10;99.90;;;;;;4948545;29;20430;-96
2021/08/21 03:38:12;;;;;;;6.60;3.80;;;13.10;99.90;;;;;;4943428;29;20459;-96
2021/08/21 03:40:47;;;;;;;6.85;3.78;;;13.00;99.90;;;;;;4944316;29;20437;-96
2021/08/21 03:43:42;;;;;;;8.05;4.10;;;13.00;99.90;;;;;;4943742;29;20422;-96
2021/08/21 03:46:14;;;;;;;9.73;4.00;;;12.90;99.90;;;;;;4945930;29;20430;-96
2021/08/21 03:48:41;;;;;;;4.57;3.55;;;12.90;99.90;;;;;;4959221;28;20424;-96
2021/08/21 03:51:08;;;;;;;6.60;3.93;;;12.90;99.90;;;;;;4960566;28;20438;-95
2021/08/21 03:53:35;;;;;;;7.80;4.03;;;13.00;99.90;;;;;;5084442;23;20560;-96
2021/08/21 03:56:43;;;;;;;;;;;;;;;;;;;;;
2021/08/21 04:08:06;;;;;;;11.40;7.63;;;12.90;99.90;;;;;;4781437;30;20504;-96
2021/08/21 04:11:05;;;;;;;8.17;5.07;;;12.80;99.90;;;;;;4761746;30;20515;-96
2021/08/21 04:13:53;;;;;;;5.70;3.90;;;12.80;99.90;;;;;;4756682;30;20452;-96
2021/08/21 04:20:13;;;;;;;8.55;3.80;;;12.90;99.90;;;;;;4748753;30;20523;-96
2021/08/21 04:22:56;;;;;;;5.70;3.80;;;13.10;99.90;;;;;;4746799;30;20428;-96
2021/08/21 04:26:11;;;;;;;6.05;3.88;;;13.10;99.90;;;;;;4761854;30;20439;-96
2021/08/21 04:29:13;;;;;;;4.85;3.45;;;13.10;99.90;;;;;;4746091;30;20432;-96
2021/08/21 04:32:02;;;;;;;4.35;3.72;;;13.10;99.90;;;;;;4747511;30;20451;-96
2021/08/21 04:35:21;;;;;;;6.88;4.53;;;13.00;99.90;;;;;;4752870;30;20450;-96
2021/08/21 04:38:20;;;;;;;10.20;6.63;;;12.90;99.90;;;;;;4797471;29;20501;-96
2021/08/21 04:41:28;;;;;;;13.25;7.40;;;12.90;99.90;;;;;;4837050;29;20447;-96
2021/08/21 04:47:22;;;;;;;7.65;4.40;;;12.90;99.90;;;;;;5027979;28;20435;-96
2021/08/21 04:49:53;;;;;;;5.93;4.47;;;12.90;99.90;;;;;;5008396;28;20419;-96
2021/08/21 04:52:29;;;;;;;9.13;4.35;;;13.00;99.90;;;;;;5007398;28;20443;-96
2021/08/21 04:55:15;;;;;;;;;;;;;;;;;;;;;
2021/08/21 04:58:07;;;;;;;8.85;3.92;;;13.10;99.90;;;;;;5028539;28;20452;-96
2021/08/21 05:01:56;;;;;;;8.55;4.07;;;13.30;99.90;;;;;;5010533;28;20439;-96
2021/08/21 05:05:19;;;;;;;;;;;;;;;;;;;;;
2021/08/21 05:08:17;;;;;;;8.73;3.53;;;13.50;99.90;;;;;;4914416;29;20543;-96
2021/08/21 05:11:26;;;;;;;4.73;3.67;;;13.60;99.90;;;;;;4908135;29;20450;-96
2021/08/21 05:14:21;;;;;;;3.85;3.45;;;13.50;99.90;;;;;;4909716;29;20447;-96
2021/08/21 05:17:53;;;;;;;5.80;3.70;;;13.50;99.90;;;;;;4894334;29;20473;-96
2021/08/21 05:28:13;;;;;;;7.13;3.70;;;13.90;99.90;;;;;;4837109;29;20440;-96
2021/08/21 06:01:04;;;;;;;6.18;3.08;;;14.60;99.90;;;;;;4979318;28;20432;-96
2021/08/21 06:03:32;;;;;;;4.18;2.83;;;14.70;99.90;;;;;;4961557;28;20424;-95
2021/08/21 06:06:02;;;;;;;5.37;3.37;;;14.80;99.90;;;;;;4960903;28;20506;-95
2021/08/21 06:08:29;;;;;;;6.88;3.30;;;14.80;99.90;;;;;;4965767;28;20432;-96
2021/08/21 06:11:00;;;;;;;7.53;3.20;;;14.80;99.90;;;;;;4962232;23;20525;-96
2021/08/21 06:13:27;;;;;;;8.88;3.35;;;14.90;99.90;;;;;;4989463;28;20418;-96
2021/08/21 06:15:54;;;;;;;5.50;3.22;;;15.00;99.90;;;;;;4985451;28;20422;-96
2021/08/21 06:18:22;;;;;;;4.55;3.30;;;15.00;99.90;;;;;;4986119;28;20423;-95
2021/08/21 06:20:50;;;;;;;5.10;3.00;;;15.10;99.90;;;;;;4989103;28;20423;-95
2021/08/21 06:23:19;;;;;;;4.05;2.75;;;15.30;99.90;;;;;;4981200;28;20961;-95
2021/08/21 06:25:46;;;;;;;7.63;2.70;;;15.50;99.90;;;;;;4979172;28;20434;-95
2021/08/21 06:28:13;;;;;;;4.93;2.65;;;16.10;99.90;;;;;;4980336;28;20415;-96
2021/08/21 06:30:42;;;;;;;4.05;2.60;;;17.10;99.90;;;;;;5000491;23;20465;-96
2021/08/21 06:33:10;;;;;;;3.60;2.10;;;18.90;99.90;;;;;;5000674;28;20442;-96
2021/08/21 06:35:37;;;;;;;2.47;1.95;;;20.40;99.90;;;;;;4999511;28;20408;-96
2021/08/21 06:38:04;;;;;;;4.82;1.98;;;21.70;99.90;;;;;;5001307;28;20470;-96
2021/08/21 06:40:36;;;;;;;3.63;2.20;;;22.30;99.90;;;;;;5004728;28;20462;-96
2021/08/21 06:43:04;;;;;;;3.27;1.93;;;23.10;99.90;;;;;;4998235;28;20925;-96
2021/08/21 06:45:31;;;;;;;3.97;2.00;;;23.50;99.90;;;;;;4997568;28;20427;-96
2021/08/21 06:47:58;;;;;;;3.70;2.00;;;23.50;99.90;;;;;;4996272;28;20423;-96
2021/08/21 06:50:25;;;;;;;2.53;1.90;;;23.10;99.90;;;;;;4995137;28;20452;-95
2021/08/21 06:52:53;;;;;;;2.10;1.90;;;22.80;99.90;;;;;;4998050;28;20439;-95
2021/08/21 06:55:20;;;;;;;4.88;2.42;;;22.60;99.90;;;;;;5005888;28;20435;-95
2021/08/21 06:58:06;;;;;;;3.50;2.20;;;22.00;99.90;;;;;;5001401;28;20773;-95
2021/08/21 07:00:44;;;;;;;3.28;2.10;;;21.60;99.90;;;;;;4998785;28;20451;-96
2021/08/21 07:03:20;;;;;;;5.00;2.30;;;21.20;99.90;;;;;;5004401;28;20430;-96
2021/08/21 07:06:16;;;;;;;3.63;2.30;;;20.80;99.90;;;;;;5003646;28;20419;-96
2021/08/21 07:09:03;;;;;;;3.05;2.20;;;20.70;99.90;;;;;;5005995;28;20419;-96
2021/08/21 07:11:36;;;;;;;3.78;2.28;;;20.60;99.90;;;;;;5002445;28;20430;-95
2021/08/21 07:17:43;;;;;;;5.35;2.53;;;20.30;99.90;;;;;;5592577;23;20417;-96
2021/08/21 07:21:00;;;;;;;4.43;2.58;;;20.40;99.90;;;;;;5022667;28;20448;-94
2021/08/21 07:23:32;;;;;;;4.90;2.53;;;20.60;99.90;;;;;;4961920;29;20426;-96
2021/08/21 07:26:07;;;;;;;5.20;2.50;;;20.60;99.90;;;;;;4991331;23;20432;-94
2021/08/21 07:28:34;;;;;;;3.05;2.60;;;20.40;99.90;;;;;;5015103;28;20423;-96
2021/08/21 07:31:02;;;;;;;3.03;2.20;;;20.50;99.90;;;;;;5015197;28;20484;-96
2021/08/21 07:33:40;;;;;;;3.65;2.35;;;20.70;99.90;;;;;;5002464;28;20436;-96
2021/08/21 07:36:08;;;;;;;4.15;2.55;;;20.80;99.90;;;;;;5015044;28;20424;-95
2021/08/21 07:38:36;;;;;;;6.05;3.00;;;20.60;99.90;;;;;;5025546;28;20452;-96
2021/08/21 07:41:04;;;;;;;3.65;2.67;;;20.60;99.90;;;;;;5029780;28;20425;-96
2021/08/21 07:43:35;;;;;;;4.63;2.50;;;20.90;99.90;;;;;;5077907;23;20402;-96
2021/08/21 08:10:14;;;;;;;6.67;2.40;;;20.10;99.90;;;;;;5006418;28;20572;-94
2021/08/21 08:12:41;;;;;;;4.63;3.25;;;20.00;99.90;;;;;;5012777;28;20438;-96
2021/08/21 08:15:09;;;;;;;3.70;2.70;;;20.00;99.90;;;;;;5013594;28;20476;-96
2021/08/21 08:17:39;;;;;;;5.47;2.97;;;20.20;99.90;;;;;;5001547;28;20526;-95
2021/08/21 08:20:07;;;;;;;5.68;3.17;;;20.20;99.90;;;;;;5019648;28;20732;-94
2021/08/21 08:22:35;;;;;;;5.07;2.80;;;20.40;99.90;;;;;;4999548;28;20434;-95
2021/08/21 08:25:03;;;;;;;5.03;3.40;;;20.40;99.90;;;;;;4984326;28;20422;-95
2021/08/21 08:27:30;;;;;;;4.45;3.20;;;20.30;99.90;;;;;;4999584;28;20431;-96
2021/08/21 08:29:57;;;;;;;4.07;2.78;;;20.00;99.90;;;;;;5020869;28;20416;-95
2021/08/21 08:32:24;;;;;;;5.97;3.05;;;20.10;99.90;;;;;;5018985;28;20456;-94
2021/08/21 08:34:52;;;;;;;7.63;3.35;;;20.00;99.90;;;;;;5019401;28;20424;-95
2021/08/21 08:37:19;;;;;;;7.22;3.00;;;19.90;99.90;;;;;;5019128;28;20741;-96
2021/08/21 08:39:46;;;;;;;6.17;3.00;;;19.90;99.90;;;;;;5017342;28;20421;-96
2021/08/21 08:42:15;;;;;;;7.10;3.47;;;19.90;99.90;;;;;;5017265;28;20428;-95
2021/08/21 08:44:46;;;;;;;4.25;3.10;;;20.00;99.90;;;;;;5017173;28;20416;-94
2021/08/21 08:47:18;;;;;;;11.75;3.25;;;20.50;99.90;;;;;;5017730;28;20419;-92
2021/08/21 08:49:47;;;;;;;8.90;2.85;;;20.90;99.90;;;;;;5017532;28;20417;-93
2021/08/21 08:52:18;;;;;;;3.88;2.90;;;21.20;99.90;;;;;;5017188;28;20424;-93
2021/08/21 08:54:46;;;;;;;6.35;3.50;;;21.40;99.90;;;;;;5017225;28;20750;-93
2021/08/21 08:57:32;;;;;;;5.18;3.15;;;21.30;99.90;;;;;;5017065;28;20436;-93
2021/08/21 08:59:59;;;;;;;5.97;3.30;;;20.90;99.90;;;;;;5017152;28;20453;-94
2021/08/21 09:02:39;;;;;;;5.10;3.53;;;20.90;99.90;;;;;;5017010;28;20943;-93
2021/08/21 09:05:09;;;;;;;8.13;3.67;;;21.30;99.90;;;;;;5017651;28;20420;-93
2021/08/21 09:07:51;;;;;;;9.25;3.63;;;21.40;99.90;;;;;;5016650;28;20456;-93
2021/08/21 09:10:27;;;;;;;6.10;3.77;;;21.60;99.90;;;;;;5016523;28;20436;-93
2021/08/21 09:13:15;;;;;;;4.93;4.00;;;21.60;99.90;;;;;;5016931;28;20423;-90
2021/08/21 09:15:44;;;;;;;7.88;3.63;;;21.90;99.90;;;;;;5017781;28;20420;-93
2021/08/21 09:18:21;;;;;;;4.90;3.42;;;22.20;99.90;;;;;;5016820;28;20425;-93
2021/08/21 09:21:08;;;;;;;6.60;3.40;;;22.20;99.90;;;;;;5026791;28;20451;-93
2021/08/21 09:23:44;;;;;;;5.47;2.97;;;21.90;99.90;;;;;;5028182;28;20800;-93
2021/08/21 09:26:31;;;;;;;8.65;3.50;;;22.00;99.90;;;;;;5017458;28;20508;-95
2021/08/21 09:28:59;;;;;;;9.23;3.20;;;22.30;99.90;;;;;;5016823;28;20417;-89
2021/08/21 09:31:30;;;;;;;6.05;3.60;;;22.20;99.90;;;;;;5017659;28;20541;-90
2021/08/21 09:34:00;;;;;;;8.02;3.50;;;22.20;99.90;;;;;;5017794;28;20445;-90
2021/08/21 09:36:30;;;;;;;7.47;3.55;;;22.20;99.90;;;;;;5018949;28;20408;-93
2021/08/21 09:39:02;;;;;;;5.07;3.40;;;22.60;99.90;;;;;;5016611;28;20491;-94
2021/08/21 09:41:30;;;;;;;8.07;4.05;;;23.10;99.90;;;;;;5017751;28;20433;-89
2021/08/21 09:44:08;;;;;;;6.93;3.88;;;23.00;99.90;;;;;;5017422;28;20421;-89
2021/08/21 09:46:37;;;;;;;6.25;4.18;;;22.60;99.90;;;;;;5017511;28;20417;-93
2021/08/21 09:49:06;;;;;;;5.90;3.97;;;22.40;99.90;;;;;;5015509;28;20425;-92
2021/08/21 09:51:43;;;;;;;4.53;3.83;;;22.60;99.90;;;;;;5017038;28;20420;-92
2021/08/21 09:54:21;;;;;;;6.97;3.72;;;23.00;99.90;;;;;;5031709;28;20800;-93
2021/08/21 09:56:53;;;;;;;5.40;3.50;;;23.60;99.90;;;;;;5017101;28;20417;-92
2021/08/21 09:59:35;;;;;;;7.70;3.83;;;23.20;99.90;;;;;;5015061;28;20436;-93
2021/08/21 10:02:13;;;;;;;7.97;3.70;;;23.10;99.90;;;;;;5015376;28;20424;-93
2021/08/21 10:04:43;;;;;;;6.47;3.70;;;23.00;99.90;;;;;;5015724;28;20475;-91
2021/08/21 10:07:20;;;;;;;8.07;3.75;;;22.90;99.90;;;;;;5016564;28;20820;-95
2021/08/21 10:09:51;;;;;;;5.65;4.10;;;22.70;99.90;;;;;;5017052;28;20524;-94
2021/08/21 10:12:22;;;;;;;6.53;3.90;;;22.70;99.90;;;;;;5015666;28;20448;-95
2021/08/21 10:14:50;;;;;;;7.55;3.78;;;22.80;99.90;;;;;;5015528;28;20480;-94
2021/08/21 10:17:19;;;;;;;5.70;3.47;;;23.30;99.90;;;;;;5015546;28;20503;-96
2021/08/21 10:19:48;;;;;;;8.70;3.90;;;23.50;99.90;;;;;;5015849;28;20440;-94
2021/08/21 10:22:16;;;;;;;5.97;3.80;;;23.40;99.90;;;;;;5015366;28;20429;-94
2021/08/21 10:24:47;;;;;;;6.78;3.75;;;23.10;99.90;;;;;;5015141;28;20421;-94
2021/08/21 10:27:33;;;;;;;6.25;3.50;;;23.00;99.90;;;;;;5015698;28;20454;-93
2021/08/21 10:30:20;;;;;;;5.72;3.78;;;23.10;99.90;;;;;;5015398;28;20424;-96
2021/08/21 10:33:01;;;;;;;7.28;3.40;;;23.10;99.90;;;;;;5015430;28;20429;-94
2021/08/21 10:35:50;;;;;;;4.72;3.03;;;23.10;99.90;;;;;;5015123;28;20448;-95
2021/08/21 10:38:29;;;;;;;9.07;3.55;;;23.20;99.90;;;;;;5015513;28;20431;-95
2021/08/21 10:40:58;;;;;;;12.05;3.90;;;23.30;99.90;;;;;;5016620;28;20428;-96
2021/08/21 10:43:44;;;;;;;9.35;3.50;;;23.10;99.90;;;;;;5014620;28;20425;-95
2021/08/21 10:46:12;;;;;;;5.78;3.90;;;23.00;99.90;;;;;;5017328;28;20420;-96
2021/08/21 10:48:39;;;;;;;5.25;3.53;;;23.00;99.90;;;;;;5017681;28;20417;-96
2021/08/21 10:51:55;;;;;;;9.15;3.88;;;23.00;99.90;;;;;;5015234;28;20433;-94
2021/08/21 10:54:24;;;;;;;6.45;3.00;;;23.40;99.90;;;;;;4955968;29;20446;-96
2021/08/21 10:56:53;;;;;;;6.22;3.65;;;23.60;99.90;;;;;;4941707;29;20418;-96
2021/08/21 10:59:38;;;;;;;4.75;3.28;;;23.50;99.90;;;;;;4957336;29;20434;-92
2021/08/21 11:02:28;;;;;;;4.90;3.10;;;23.50;99.90;;;;;;4947806;29;20441;-92
2021/08/21 11:05:00;;;;;;;6.50;3.30;;;23.50;99.90;;;;;;4976537;28;20425;-96
2021/08/21 11:07:37;;;;;;;8.30;3.70;;;23.40;99.90;;;;;;4970797;29;20414;-96
2021/08/21 11:10:40;;;;;;;6.40;3.40;;;23.50;99.90;;;;;;4945928;29;20698;-96
2021/08/21 11:13:10;;;;;;;5.78;2.90;;;23.60;99.90;;;;;;4931140;29;20437;-93
2021/08/21 11:15:39;;;;;;;5.15;3.08;;;23.70;99.90;;;;;;4956266;29;20426;-91
2021/08/21 11:18:21;;;;;;;4.70;3.20;;;23.60;99.90;;;;;;4956930;29;20425;-92
2021/08/21 11:20:48;;;;;;;5.88;3.20;;;23.80;99.90;;;;;;4959067;29;20418;-96
2021/08/21 11:23:15;;;;;;;7.10;3.58;;;24.00;99.90;;;;;;4957740;29;20429;-91
2021/08/21 11:25:44;;;;;;;7.00;3.00;;;24.00;99.90;;;;;;4941488;29;20433;-92
2021/08/21 11:28:28;;;;;;;6.10;3.95;;;24.20;99.90;;;;;;4957228;29;20493;-95
2021/08/21 11:31:12;;;;;;;7.20;3.30;;;24.30;98.20;;;;;;4995372;28;20425;-95
2021/08/21 11:33:41;;;;;;;13.17;4.73;;;24.00;99.90;;;;;;5015465;28;20459;-94
2021/08/21 11:36:09;;;;;;;5.70;3.60;;;23.50;99.90;;;;;;5015848;28;20424;-94
2021/08/21 11:38:39;;;;;;;10.52;4.15;;;23.60;99.90;;;;;;5020129;28;20755;-94
2021/08/21 11:41:12;;;;;;;6.22;3.55;;;23.50;99.90;;;;;;5017337;28;20906;-94
2021/08/21 11:43:41;;;;;;;7.75;3.08;;;23.60;99.90;;;;;;5016444;28;20433;-94
2021/08/21 11:46:14;;;;;;;4.85;2.97;;;23.80;99.90;;;;;;5018520;28;20423;-94
2021/08/21 11:48:41;;;;;;;7.23;3.30;;;24.10;99.90;;;;;;5017490;28;20429;-94
2021/08/21 11:51:09;;;;;;;6.00;3.17;;;24.40;99.90;;;;;;5016235;28;20433;-94
2021/08/21 11:53:42;;;;;;;5.40;3.15;;;24.50;99.90;;;;;;5016253;28;20436;-95
2021/08/21 11:56:14;;;;;;;4.40;3.00;;;24.50;98.80;;;;;;5017289;28;20424;-94
2021/08/21 11:58:51;;;;;;;4.18;2.95;;;24.20;99.90;;;;;;5015160;28;20449;-94
2021/08/21 12:01:30;;;;;;;4.78;3.25;;;24.30;98.30;;;;;;5017875;28;20598;-94
2021/08/21 12:06:36;;;;;;;10.95;3.53;;;24.70;99.90;;;;;;5017103;28;20769;-93
2021/08/21 12:09:17;;;;;;;5.85;3.13;;;24.90;97.30;;;;;;5017416;28;20420;-95
2021/08/21 12:11:46;;;;;;;28.42;4.10;;;25.40;98.00;;;;;;5016414;28;20425;-95
2021/08/21 12:14:16;;;;;;;45.03;4.90;;;26.00;99.40;;;;;;5014316;28;20471;-93
2021/08/21 12:16:44;;;;;;;6.70;3.20;;;26.60;97.30;;;;;;5013753;28;20760;-93
2021/08/21 12:19:11;;;;;;;9.97;3.40;;;26.70;93.60;;;;;;5014152;28;20431;-93
2021/08/21 12:21:39;;;;;;;7.40;2.97;;;26.60;94.00;;;;;;5013766;28;20420;-94
2021/08/21 12:24:12;;;;;;;13.40;3.53;;;26.70;93.70;;;;;;5013847;28;20421;-93
2021/08/21 12:26:44;;;;;;;7.93;3.50;;;26.70;92.50;;;;;;5013172;28;20432;-93
2021/08/21 12:29:30;;;;;;;4.85;2.70;;;26.90;94.10;;;;;;5013871;28;20425;-94
2021/08/21 12:31:59;;;;;;;5.33;2.93;;;27.20;94.20;;;;;;5014419;28;20479;-93
2021/08/21 12:34:27;;;;;;;3.58;2.50;;;27.40;92.30;;;;;;5013078;28;21003;-94
2021/08/21 12:36:59;;;;;;;4.70;2.88;;;27.60;92.30;;;;;;5013522;28;20425;-93
2021/08/21 12:39:28;;;;;;;4.95;3.10;;;28.00;89.00;;;;;;5014068;28;20417;-93
2021/08/21 12:42:00;;;;;;;5.72;3.08;;;27.80;90.50;;;;;;5012600;28;20432;-94
2021/08/21 12:44:30;;;;;;;9.10;3.35;;;27.80;89.00;;;;;;5013355;28;20428;-93
2021/08/21 12:47:01;;;;;;;4.10;2.60;;;27.60;89.30;;;;;;5022256;28;20452;-94
2021/08/21 12:49:31;;;;;;;4.23;2.47;;;27.80;91.00;;;;;;5014522;28;20424;-90
2021/08/21 12:52:28;;;;;;;4.10;2.83;;;28.10;87.90;;;;;;5021936;28;20430;-96
2021/08/21 12:55:02;;;;;;;4.95;3.03;;;28.10;90.70;;;;;;5024847;28;20445;-95
2021/08/21 12:57:32;;;;;;;5.50;2.83;;;28.30;90.40;;;;;;5019104;28;20417;-96
2021/08/21 13:00:05;;;;;;;3.88;2.50;;;28.30;84.20;;;;;;5019017;28;20420;-95
2021/08/21 13:02:47;;;;;;;4.95;2.72;;;28.60;92.10;;;;;;5015681;28;20409;-92
2021/08/21 13:05:23;;;;;;;4.25;2.65;;;28.80;85.90;;;;;;5019102;28;20420;-94
2021/08/21 13:08:00;;;;;;;3.83;2.75;;;28.90;81.40;;;;;;5018647;28;20408;-93
2021/08/21 13:10:27;;;;;;;4.95;2.80;;;28.70;78.90;;;;;;5017293;28;20440;-94
2021/08/21 13:12:54;;;;;;;4.63;3.00;;;28.40;80.40;;;;;;5018137;28;20428;-93
2021/08/21 13:15:22;;;;;;;5.97;2.75;;;28.10;79.50;;;;;;5018142;28;20445;-93
2021/08/21 13:17:54;;;;;;;4.47;2.80;;;27.20;81.10;;;;;;5018572;28;20427;-92
2021/08/21 13:20:23;;;;;;;5.25;2.60;;;27.00;79.90;;;;;;5006946;28;20434;-96
2021/08/21 13:22:51;;;;;;;5.25;2.60;;;27.20;81.80;;;;;;4996404;28;20430;-93
2021/08/21 13:25:19;;;;;;;4.93;3.10;;;27.30;81.00;;;;;;4997639;28;20482;-94
2021/08/21 13:27:46;;;;;;;6.85;3.20;;;27.30;83.30;;;;;;4997440;28;20492;-94
2021/08/21 13:30:16;;;;;;;4.32;2.85;;;27.60;87.90;;;;;;4997815;28;20409;-96
2021/08/21 13:32:43;;;;;;;6.03;2.80;;;27.80;86.50;;;;;;4997096;28;20434;-95
2021/08/21 13:35:11;;;;;;;5.60;2.55;;;28.00;83.20;;;;;;4997595;28;20505;-93
2021/08/21 13:37:40;;;;;;;8.50;2.90;;;28.00;77.50;;;;;;4997330;28;20794;-94
2021/08/21 13:40:08;;;;;;;5.45;3.20;;;27.40;79.30;;;;;;4996921;28;20414;-94
2021/08/21 13:42:35;;;;;;;4.20;2.85;;;27.30;78.20;;;;;;4996768;28;20778;-95
2021/08/21 13:45:03;;;;;;;5.60;2.70;;;27.50;83.30;;;;;;4997728;28;20433;-96
2021/08/21 13:47:32;;;;;;;4.85;2.40;;;28.10;80.40;;;;;;4997309;28;20449;-93
2021/08/21 13:49:59;;;;;;;5.38;2.70;;;28.70;81.00;;;;;;4998380;28;20457;-94
2021/08/21 13:52:26;;;;;;;6.18;2.58;;;29.00;77.90;;;;;;4998601;28;20422;-92
2021/08/21 13:54:53;;;;;;;4.88;2.78;;;29.30;85.00;;;;;;4996579;28;20439;-90
2021/08/21 13:57:20;;;;;;;4.10;2.60;;;29.50;77.40;;;;;;4997977;28;20414;-92
2021/08/21 14:00:07;;;;;;;4.88;2.92;;;29.40;75.10;;;;;;4996553;28;20411;-92
2021/08/21 14:02:35;;;;;;;4.47;2.80;;;29.40;81.50;;;;;;4996494;28;20799;-91
2021/08/21 14:05:02;;;;;;;5.70;2.90;;;29.40;75.70;;;;;;4996936;28;21024;-91
2021/08/21 14:07:30;;;;;;;4.68;2.75;;;29.20;80.90;;;;;;4995849;28;20441;-91
2021/08/21 14:09:57;;;;;;;4.68;2.72;;;29.40;75.10;;;;;;4996156;28;20437;-95
2021/08/21 14:12:24;;;;;;;5.93;2.42;;;29.50;77.00;;;;;;5012974;28;20433;-93
2021/08/21 14:14:54;;;;;;;3.97;2.53;;;29.80;74.00;;;;;;4995714;28;20954;-91
2021/08/21 14:17:21;;;;;;;6.80;2.83;;;30.20;76.40;;;;;;4998831;28;20422;-92
2021/08/21 14:19:48;;;;;;;7.68;2.65;;;30.10;71.70;;;;;;4998423;28;20892;-91
2021/08/21 14:22:15;;;;;;;5.43;2.70;;;29.90;71.90;;;;;;4998155;28;20419;-93
2021/08/21 14:24:42;;;;;;;4.27;2.60;;;29.70;76.20;;;;;;4995779;28;20430;-96
2021/08/21 14:27:09;;;;;;;7.15;2.60;;;29.50;76.70;;;;;;5002312;28;20423;-92
2021/08/21 14:29:36;;;;;;;5.28;2.78;;;29.70;72.90;;;;;;5004675;28;20458;-93
2021/08/21 14:32:06;;;;;;;6.00;2.70;;;29.40;71.00;;;;;;4995857;28;20465;-93
2021/08/21 14:34:33;;;;;;;5.45;2.90;;;28.90;72.60;;;;;;4997401;28;20434;-88
2021/08/21 14:37:00;;;;;;;6.03;2.90;;;28.20;75.20;;;;;;4997197;28;20422;-90
2021/08/21 14:39:27;;;;;;;5.97;2.83;;;28.00;74.80;;;;;;4995368;28;20453;-88
2021/08/21 14:41:54;;;;;;;6.35;2.90;;;28.00;73.60;;;;;;4997719;28;20427;-96
2021/08/21 14:44:21;;;;;;;4.97;2.75;;;28.10;74.20;;;;;;4997515;28;20427;-89
2021/08/21 14:46:48;;;;;;;5.15;2.55;;;28.10;73.60;;;;;;4997108;28;21011;-89
2021/08/21 14:49:15;;;;;;;4.45;2.70;;;28.10;74.40;;;;;;4997826;28;20429;-91
2021/08/21 14:51:43;;;;;;;3.70;2.50;;;28.20;73.70;;;;;;4995600;28;20485;-88
2021/08/21 14:54:11;;;;;;;4.88;2.53;;;28.60;73.20;;;;;;4995510;28;20441;-92
2021/08/21 14:56:38;;;;;;;3.80;2.47;;;28.80;74.60;;;;;;4996184;28;20433;-91
2021/08/21 14:59:05;;;;;;;4.95;2.65;;;28.90;73.30;;;;;;4995121;28;20510;-91
2021/08/21 15:01:33;;;;;;;8.15;2.80;;;29.40;70.90;;;;;;5012115;28;20989;-94
2021/08/21 15:04:03;;;;;;;4.50;2.72;;;29.50;73.90;;;;;;4995881;28;20426;-88
2021/08/21 15:06:30;;;;;;;4.13;2.65;;;29.60;69.50;;;;;;4994943;28;20502;-87
2021/08/21 15:08:57;;;;;;;7.50;2.77;;;28.70;70.70;;;;;;4994424;28;20430;-92
2021/08/21 15:11:25;;;;;;;5.63;3.00;;;28.40;71.10;;;;;;5013193;28;20427;-96
2021/08/21 15:16:29;;;;;;;3.10;2.50;;;28.70;74.10;;;;;;5062047;23;20433;-93
2021/08/21 15:18:58;;;;;;;5.35;2.97;;;28.80;71.00;;;;;;4995470;28;20423;-88
2021/08/21 15:21:26;;;;;;;4.33;2.70;;;28.70;74.50;;;;;;4997112;28;20430;-90
2021/08/21 15:23:55;;;;;;;4.53;2.53;;;29.00;70.70;;;;;;4996316;28;20426;-90
2021/08/21 15:26:24;;;;;;;4.93;2.67;;;29.10;72.10;;;;;;4995527;28;20944;-88
2021/08/21 15:28:54;;;;;;;6.15;2.80;;;29.10;69.20;;;;;;4995427;28;20436;-87
2021/08/21 15:31:22;;;;;;;3.97;2.63;;;29.00;70.90;;;;;;4994518;28;20505;-89
2021/08/21 15:33:49;;;;;;;4.93;2.97;;;29.00;74.60;;;;;;4997160;28;20414;-94
2021/08/21 15:36:17;;;;;;;3.83;2.55;;;28.90;68.70;;;;;;4995354;28;20418;-92
2021/08/21 15:38:44;;;;;;;3.58;2.70;;;29.00;70.80;;;;;;4994763;28;20417;-91
2021/08/21 15:41:11;;;;;;;4.70;2.80;;;29.10;69.60;;;;;;4997233;28;20500;-91
2021/08/21 15:43:39;;;;;;;4.88;2.60;;;29.20;69.90;;;;;;4994610;28;20497;-89
2021/08/21 15:46:08;;;;;;;8.52;2.78;;;29.20;70.80;;;;;;4995167;28;20426;-89